»·PEaware :: UPS304 KDEN-KLAX

UPS304 :: KDEN-KLAX

FLIGHT INFORMATION

Flight Status: Arrived
Operator:
United Parcel Service
More flights by this operator :: More flights under this callsign
Pilot: Zachary C. (8151)
Aircraft: Unknown
(B77F)
More flights by this aircraft type
Origin: KDEN Denver Intl
United States
Destination: KLAX Los Angeles Intl
United States
More flights between these airports :: More routes between these airports
Route: +BAYLR3 TEHRU TBC PGS RIIVR2
File this flight plan on PilotEdge
Remarks:
Altitude:
(Current/Filed)
34,000ft
Speed:
(Current/Filed)
450kts
Departed: 05-Nov-15 03:18 PM
Arrived: 05-Nov-15 05:34 PM
Distance/Time
Traveled:
748nm/2:16
Distance/Time
To Go:
Arrived

Flight Plot

Page will automatically refresh every two minutes.


Map Options




Map Legend


Flown Route
Filed Route
Departure Airport
Arrival Airport
Navaid (VOR, NDB)
Fix

Horizontal Profiles

Position Reports

Time Latitude Longitude Heading Altitude Ground
Speed
05-Nov-15 15:13 39.864772 -104.641735 95 5448ft 8kts
05-Nov-15 15:14 39.864192 -104.641307 181 5448ft 0kts
05-Nov-15 15:15 39.864162 -104.641308 181 5448ft 4kts
05-Nov-15 15:16 39.830940 -104.641956 185 6184ft 218kts
05-Nov-15 15:17 39.779035 -104.684859 227 8004ft 250kts
05-Nov-15 15:18 39.757225 -104.768525 267 9976ft 265kts
05-Nov-15 15:19 39.756930 -104.864506 269 9971ft 266kts
05-Nov-15 15:20 39.764728 -104.959327 282 11937ft 269kts
05-Nov-15 15:21 39.755656 -105.053207 253 11972ft 277kts
05-Nov-15 15:22 39.724025 -105.145682 250 12258ft 309kts
05-Nov-15 15:23 39.688172 -105.246395 250 15964ft 316kts
05-Nov-15 15:24 39.650744 -105.350567 250 19085ft 330kts
05-Nov-15 15:25 39.611442 -105.459711 251 21938ft 342kts
05-Nov-15 15:26 39.570323 -105.572169 251 24510ft 355kts
05-Nov-15 15:27 39.532833 -105.691821 256 27071ft 363kts
05-Nov-15 15:28 39.499143 -105.813675 256 29417ft 374kts
05-Nov-15 15:29 39.463925 -105.939899 257 31596ft 386kts
05-Nov-15 15:30 39.426942 -106.071661 257 33744ft 398kts
05-Nov-15 15:31 39.389801 -106.204808 256 34055ft 401kts
05-Nov-15 15:32 39.351540 -106.340032 256 34053ft 401kts
05-Nov-15 15:33 39.313067 -106.475082 256 34052ft 401kts
05-Nov-15 15:34 39.280771 -106.587905 256 34052ft 400kts
05-Nov-15 15:35 39.240732 -106.718599 247 34065ft 401kts
05-Nov-15 15:36 39.170921 -106.832419 239 34074ft 401kts
05-Nov-15 15:37 39.099890 -106.943151 239 34074ft 402kts
05-Nov-15 15:38 39.028542 -107.053780 239 34073ft 402kts
05-Nov-15 15:39 38.957965 -107.163485 238 34104ft 404kts
05-Nov-15 15:40 38.886389 -107.273888 238 34119ft 405kts
05-Nov-15 15:41 38.814341 -107.384436 238 34138ft 404kts
05-Nov-15 15:42 38.743244 -107.493149 238 34158ft 402kts
05-Nov-15 15:43 38.671642 -107.602265 238 34165ft 402kts
05-Nov-15 15:44 38.598044 -107.714248 238 34197ft 443kts
05-Nov-15 15:45 38.518834 -107.833872 238 34171ft 443kts
05-Nov-15 15:46 38.439854 -107.952921 238 34165ft 443kts
05-Nov-15 15:47 38.360059 -108.072765 238 34168ft 444kts
05-Nov-15 15:48 38.280901 -108.191984 237 34196ft 447kts
05-Nov-15 15:49 38.200516 -108.311952 237 34026ft 448kts
05-Nov-15 15:50 38.119480 -108.432300 237 34022ft 448kts
05-Nov-15 15:51 38.038446 -108.552194 237 34026ft 448kts
05-Nov-15 15:52 37.957603 -108.671365 237 34025ft 448kts
05-Nov-15 15:53 37.876821 -108.790042 237 34021ft 447kts
05-Nov-15 15:54 37.796244 -108.907912 237 34039ft 447kts
05-Nov-15 15:55 37.715336 -109.025920 237 34053ft 446kts
05-Nov-15 15:56 37.636049 -109.141575 236 34065ft 443kts
05-Nov-15 15:57 37.555303 -109.258826 235 34078ft 443kts
05-Nov-15 15:58 37.502390 -109.335222 235 34077ft 444kts
05-Nov-15 15:59 37.502390 -109.335222 235 34077ft 444kts
05-Nov-15 16:00 37.502390 -109.335222 235 34077ft 444kts
05-Nov-15 16:01 37.502390 -109.335222 235 34077ft 444kts
05-Nov-15 16:02 37.502390 -109.335222 235 34077ft 444kts
05-Nov-15 16:03 37.502390 -109.335222 235 34077ft 444kts
05-Nov-15 16:04 37.502390 -109.335222 235 34077ft 444kts
05-Nov-15 16:05 37.502390 -109.335222 235 34077ft 444kts
05-Nov-15 16:06 37.502390 -109.335222 235 34077ft 444kts
05-Nov-15 16:07 37.502390 -109.335222 235 34077ft 444kts
05-Nov-15 16:08 37.502390 -109.335222 235 34077ft 444kts
05-Nov-15 16:09 37.502390 -109.335222 235 34077ft 444kts
05-Nov-15 16:10 37.502390 -109.335222 235 34077ft 444kts
05-Nov-15 16:11 37.502390 -109.335222 235 34077ft 444kts
05-Nov-15 16:12 37.502390 -109.335222 235 34077ft 444kts
05-Nov-15 16:13 37.442665 -109.421254 235 34074ft 442kts
05-Nov-15 16:14 37.361426 -109.537820 235 34071ft 442kts
05-Nov-15 16:15 37.280246 -109.653914 235 34069ft 442kts
05-Nov-15 16:16 37.198960 -109.769753 235 34068ft 442kts
05-Nov-15 16:17 37.121659 -109.879533 235 34066ft 442kts
05-Nov-15 16:18 37.040296 -109.994685 235 34065ft 443kts
05-Nov-15 16:19 36.958980 -110.109379 235 34069ft 443kts
05-Nov-15 16:20 36.877297 -110.225015 234 34063ft 445kts
05-Nov-15 16:21 36.795154 -110.340115 234 34026ft 448kts
05-Nov-15 16:22 36.712298 -110.455750 234 34001ft 446kts
05-Nov-15 16:23 36.629731 -110.570538 234 33999ft 447kts
05-Nov-15 16:24 36.546222 -110.686268 234 33998ft 450kts
05-Nov-15 16:25 36.462484 -110.801927 234 33997ft 450kts
05-Nov-15 16:26 36.378829 -110.917059 234 33992ft 450kts
05-Nov-15 16:27 36.295011 -111.032019 234 33991ft 450kts
05-Nov-15 16:28 36.225039 -111.127869 234 34006ft 450kts
05-Nov-15 16:29 36.129987 -111.263979 243 34003ft 442kts
05-Nov-15 16:30 36.097908 -111.382084 257 34020ft 434kts
05-Nov-15 16:31 36.062706 -111.550308 257 34039ft 435kts
05-Nov-15 16:32 36.037181 -111.671220 257 34043ft 437kts
05-Nov-15 16:33 36.006102 -111.817421 257 34041ft 439kts
05-Nov-15 16:34 35.975057 -111.962536 257 34040ft 439kts
05-Nov-15 16:35 35.943929 -112.107152 256 34040ft 439kts
05-Nov-15 16:36 35.912859 -112.252622 256 34048ft 439kts
05-Nov-15 16:37 35.881102 -112.398451 256 34047ft 439kts
05-Nov-15 16:38 35.849240 -112.543701 256 34045ft 439kts
05-Nov-15 16:39 35.817212 -112.688787 256 34043ft 439kts
05-Nov-15 16:40 35.785011 -112.833754 256 34042ft 439kts
05-Nov-15 16:41 35.752730 -112.978185 256 34058ft 439kts
05-Nov-15 16:42 35.720301 -113.122517 256 34079ft 439kts
05-Nov-15 16:43 35.687936 -113.267413 256 34063ft 440kts
05-Nov-15 16:44 35.654994 -113.412227 256 34047ft 440kts
05-Nov-15 16:45 35.619119 -113.556139 247 34042ft 445kts
05-Nov-15 16:46 35.564035 -113.694290 246 34044ft 454kts
05-Nov-15 16:47 35.507257 -113.834172 246 34043ft 458kts
05-Nov-15 16:48 35.450307 -113.973741 246 34042ft 458kts
05-Nov-15 16:49 35.393336 -114.112789 246 34042ft 459kts
05-Nov-15 16:50 35.336051 -114.253128 246 34047ft 459kts
05-Nov-15 16:51 35.278432 -114.392614 246 34041ft 459kts
05-Nov-15 16:52 35.220706 -114.531714 246 34035ft 459kts
05-Nov-15 16:53 35.162652 -114.671020 246 34034ft 459kts
05-Nov-15 16:54 35.104518 -114.809939 246 34033ft 459kts
05-Nov-15 16:55 35.046230 -114.948651 246 34032ft 459kts
05-Nov-15 16:56 34.987538 -115.087732 246 34025ft 461kts
05-Nov-15 16:57 34.929201 -115.226478 245 34030ft 461kts
05-Nov-15 16:58 34.870029 -115.365638 245 33366ft 463kts
05-Nov-15 16:59 34.810682 -115.504558 245 32286ft 463kts
05-Nov-15 17:00 34.750664 -115.644429 245 31159ft 469kts
05-Nov-15 17:01 34.689736 -115.785880 245 29968ft 473kts
05-Nov-15 17:02 34.628622 -115.927124 245 28746ft 462kts
05-Nov-15 17:03 34.571874 -116.057715 246 27432ft 421kts
05-Nov-15 17:04 34.517304 -116.183804 246 26246ft 423kts
05-Nov-15 17:05 34.462734 -116.308754 245 25065ft 416kts
05-Nov-15 17:06 34.411432 -116.425637 245 24109ft 408kts
05-Nov-15 17:07 34.358013 -116.546859 245 23395ft 397kts
05-Nov-15 17:08 34.308154 -116.659687 245 22243ft 374kts
05-Nov-15 17:09 34.259395 -116.769653 245 21128ft 369kts
05-Nov-15 17:10 34.211202 -116.877997 245 20006ft 362kts
05-Nov-15 17:11 34.164265 -116.983199 245 18896ft 357kts
05-Nov-15 17:12 34.118909 -117.084554 244 17839ft 351kts
05-Nov-15 17:13 34.072907 -117.187747 244 17301ft 351kts
05-Nov-15 17:14 34.044233 -117.295397 265 15371ft 332kts
05-Nov-15 17:15 34.034379 -117.397765 265 13129ft 260kts
05-Nov-15 17:16 34.026277 -117.483480 264 11295ft 242kts
05-Nov-15 17:17 34.018841 -117.561352 265 10123ft 229kts
05-Nov-15 17:18 34.011523 -117.637615 265 10000ft 229kts
05-Nov-15 17:19 34.004157 -117.713824 264 9626ft 227kts
05-Nov-15 17:20 33.997076 -117.786534 264 8586ft 214kts
05-Nov-15 17:21 33.991306 -117.845543 264 7782ft 212kts
05-Nov-15 17:22 33.984428 -117.915427 264 6832ft 209kts
05-Nov-15 17:23 33.977597 -117.984388 264 6071ft 202kts
05-Nov-15 17:24 33.971219 -118.048444 264 5221ft 190kts
05-Nov-15 17:25 33.965085 -118.109747 263 4617ft 186kts
05-Nov-15 17:26 33.959356 -118.166757 264 3739ft 168kts
05-Nov-15 17:27 33.953798 -118.221819 263 2815ft 165kts
05-Nov-15 17:28 33.948350 -118.275516 263 1917ft 161kts
05-Nov-15 17:29 33.943355 -118.324510 263 1100ft 142kts
05-Nov-15 17:30 33.938543 -118.371052 262 413ft 139kts
05-Nov-15 17:31 33.935516 -118.405147 285 142ft 41kts
05-Nov-15 17:32 33.935920 -118.407758 272 142ft 8kts
05-Nov-15 17:33 33.937904 -118.409132 351 142ft 10kts
05-Nov-15 17:34 33.939505 -118.408349 262 142ft 6kts

Navigation Log

Ident Type
Flight plan parsing failed, navigation log unavailable